sensor_id;sensor_type;location;lat;lon;timestamp;temperature;humidity
25024;DHT22;13033;50.936;5.334;2023-12-20T00:01:14;7.60;99.90
25024;DHT22;13033;50.936;5.334;2023-12-20T00:03:41;7.60;99.90
25024;DHT22;13033;50.936;5.334;2023-12-20T00:06:08;7.60;99.90
25024;DHT22;13033;50.936;5.334;2023-12-20T00:08:35;7.60;99.90
25024;DHT22;13033;50.936;5.334;2023-12-20T00:11:01;7.60;99.90
25024;DHT22;13033;50.936;5.334;2023-12-20T00:13:27;7.60;99.90
25024;DHT22;13033;50.936;5.334;2023-12-20T00:15:52;7.60;99.90
25024;DHT22;13033;50.936;5.334;2023-12-20T00:18:18;7.60;99.90
25024;DHT22;13033;50.936;5.334;2023-12-20T00:20:44;7.50;99.90
25024;DHT22;13033;50.936;5.334;2023-12-20T00:23:10;7.50;99.90
25024;DHT22;13033;50.936;5.334;2023-12-20T00:25:35;7.60;99.90
25024;DHT22;13033;50.936;5.334;2023-12-20T00:28:01;7.50;99.90
25024;DHT22;13033;50.936;5.334;2023-12-20T00:30:28;7.50;99.90
25024;DHT22;13033;50.936;5.334;2023-12-20T00:32:53;7.40;99.90
25024;DHT22;13033;50.936;5.334;2023-12-20T00:35:19;7.40;99.90
25024;DHT22;13033;50.936;5.334;2023-12-20T00:37:46;7.30;99.90
25024;DHT22;13033;50.936;5.334;2023-12-20T00:40:13;7.30;99.90
25024;DHT22;13033;50.936;5.334;2023-12-20T00:42:39;7.30;99.90
25024;DHT22;13033;50.936;5.334;2023-12-20T00:45:05;7.20;99.90
25024;DHT22;13033;50.936;5.334;2023-12-20T00:47:31;7.20;99.90
25024;DHT22;13033;50.936;5.334;2023-12-20T00:49:57;7.20;99.90
25024;DHT22;13033;50.936;5.334;2023-12-20T00:52:23;7.20;99.90
25024;DHT22;13033;50.936;5.334;2023-12-20T00:54:49;7.30;99.90
25024;DHT22;13033;50.936;5.334;2023-12-20T00:57:15;7.30;99.90
25024;DHT22;13033;50.936;5.334;2023-12-20T00:59:41;7.20;99.90
25024;DHT22;13033;50.936;5.334;2023-12-20T01:02:07;7.30;99.90
25024;DHT22;13033;50.936;5.334;2023-12-20T01:04:32;7.30;99.90
25024;DHT22;13033;50.936;5.334;2023-12-20T01:06:58;7.30;99.90
25024;DHT22;13033;50.936;5.334;2023-12-20T01:09:24;7.20;99.90
25024;DHT22;13033;50.936;5.334;2023-12-20T01:11:52;7.30;99.90
25024;DHT22;13033;50.936;5.334;2023-12-20T01:14:18;7.30;99.90
25024;DHT22;13033;50.936;5.334;2023-12-20T01:16:44;7.20;99.90
25024;DHT22;13033;50.936;5.334;2023-12-20T01:19:10;7.20;99.90
25024;DHT22;13033;50.936;5.334;2023-12-20T01:21:37;7.20;99.90
25024;DHT22;13033;50.936;5.334;2023-12-20T01:24:03;7.20;99.90
25024;DHT22;13033;50.936;5.334;2023-12-20T01:26:29;7.10;99.90
25024;DHT22;13033;50.936;5.334;2023-12-20T01:28:54;7.10;99.90
25024;DHT22;13033;50.936;5.334;2023-12-20T01:31:20;7.10;99.90
25024;DHT22;13033;50.936;5.334;2023-12-20T01:33:46;7.10;99.90
25024;DHT22;13033;50.936;5.334;2023-12-20T01:36:12;6.90;99.90
25024;DHT22;13033;50.936;5.334;2023-12-20T01:38:37;6.90;99.90
25024;DHT22;13033;50.936;5.334;2023-12-20T01:41:06;6.90;99.90
25024;DHT22;13033;50.936;5.334;2023-12-20T01:43:33;6.90;99.90
25024;DHT22;13033;50.936;5.334;2023-12-20T01:45:59;7.00;99.90
25024;DHT22;13033;50.936;5.334;2023-12-20T01:48:28;6.90;99.90
25024;DHT22;13033;50.936;5.334;2023-12-20T01:50:58;6.90;99.90
25024;DHT22;13033;50.936;5.334;2023-12-20T01:53:24;6.90;99.90
25024;DHT22;13033;50.936;5.334;2023-12-20T01:55:52;6.90;99.90
25024;DHT22;13033;50.936;5.334;2023-12-20T01:58:20;6.90;99.90
25024;DHT22;13033;50.936;5.334;2023-12-20T02:00:48;6.70;99.90
25024;DHT22;13033;50.936;5.334;2023-12-20T02:03:14;6.70;99.90
25024;DHT22;13033;50.936;5.334;2023-12-20T02:05:41;6.60;99.90
25024;DHT22;13033;50.936;5.334;2023-12-20T02:08:07;6.60;99.90
25024;DHT22;13033;50.936;5.334;2023-12-20T02:10:33;6.60;99.90
25024;DHT22;13033;50.936;5.334;2023-12-20T02:12:59;6.50;99.90
25024;DHT22;13033;50.936;5.334;2023-12-20T02:15:25;6.50;99.90
25024;DHT22;13033;50.936;5.334;2023-12-20T02:17:51;6.50;99.90
25024;DHT22;13033;50.936;5.334;2023-12-20T02:20:17;6.60;99.90
25024;DHT22;13033;50.936;5.334;2023-12-20T02:22:44;6.60;99.90
25024;DHT22;13033;50.936;5.334;2023-12-20T02:25:10;6.50;99.90
25024;DHT22;13033;50.936;5.334;2023-12-20T02:27:36;6.50;99.90
25024;DHT22;13033;50.936;5.334;2023-12-20T02:30:10;6.50;99.90
25024;DHT22;13033;50.936;5.334;2023-12-20T02:32:35;6.40;99.90
25024;DHT22;13033;50.936;5.334;2023-12-20T02:35:07;6.40;99.90
25024;DHT22;13033;50.936;5.334;2023-12-20T02:37:34;6.50;99.90
25024;DHT22;13033;50.936;5.334;2023-12-20T02:40:01;6.50;99.90
25024;DHT22;13033;50.936;5.334;2023-12-20T02:42:26;6.40;99.90
25024;DHT22;13033;50.936;5.334;2023-12-20T02:44:52;6.50;99.90
25024;DHT22;13033;50.936;5.334;2023-12-20T02:47:18;6.40;99.90
25024;DHT22;13033;50.936;5.334;2023-12-20T02:49:44;6.30;99.90
25024;DHT22;13033;50.936;5.334;2023-12-20T02:52:10;6.30;99.90
25024;DHT22;13033;50.936;5.334;2023-12-20T02:54:36;6.40;99.90
25024;DHT22;13033;50.936;5.334;2023-12-20T02:57:01;6.50;99.90
25024;DHT22;13033;50.936;5.334;2023-12-20T02:59:27;6.40;99.90
25024;DHT22;13033;50.936;5.334;2023-12-20T03:01:53;6.40;99.90
25024;DHT22;13033;50.936;5.334;2023-12-20T03:04:21;6.30;99.90
25024;DHT22;13033;50.936;5.334;2023-12-20T03:06:53;6.20;99.90
25024;DHT22;13033;50.936;5.334;2023-12-20T03:09:18;6.20;99.90
25024;DHT22;13033;50.936;5.334;2023-12-20T03:11:44;6.30;99.90
25024;DHT22;13033;50.936;5.334;2023-12-20T03:14:10;6.40;99.90
25024;DHT22;13033;50.936;5.334;2023-12-20T03:16:36;6.50;99.90
25024;DHT22;13033;50.936;5.334;2023-12-20T03:19:02;6.50;99.90
25024;DHT22;13033;50.936;5.334;2023-12-20T03:21:28;6.50;99.90
25024;DHT22;13033;50.936;5.334;2023-12-20T03:23:54;6.50;99.90
25024;DHT22;13033;50.936;5.334;2023-12-20T03:26:19;6.60;99.90
25024;DHT22;13033;50.936;5.334;2023-12-20T03:28:45;6.50;99.90
25024;DHT22;13033;50.936;5.334;2023-12-20T03:31:11;6.60;99.90
25024;DHT22;13033;50.936;5.334;2023-12-20T03:33:36;6.70;99.90
25024;DHT22;13033;50.936;5.334;2023-12-20T03:36:02;6.80;99.90
25024;DHT22;13033;50.936;5.334;2023-12-20T03:38:29;6.80;99.90
25024;DHT22;13033;50.936;5.334;2023-12-20T03:40:55;6.60;99.90
25024;DHT22;13033;50.936;5.334;2023-12-20T03:43:21;6.60;99.90
25024;DHT22;13033;50.936;5.334;2023-12-20T03:45:46;6.50;99.90
25024;DHT22;13033;50.936;5.334;2023-12-20T03:48:12;6.60;99.90
25024;DHT22;13033;50.936;5.334;2023-12-20T03:50:38;6.60;99.90
25024;DHT22;13033;50.936;5.334;2023-12-20T03:53:04;6.70;99.90
25024;DHT22;13033;50.936;5.334;2023-12-20T03:55:29;6.70;99.90
25024;DHT22;13033;50.936;5.334;2023-12-20T03:57:56;6.60;99.90
25024;DHT22;13033;50.936;5.334;2023-12-20T04:00:22;6.60;99.90
25024;DHT22;13033;50.936;5.334;2023-12-20T04:02:50;6.60;99.90
25024;DHT22;13033;50.936;5.334;2023-12-20T04:05:16;6.60;99.90
25024;DHT22;13033;50.936;5.334;2023-12-20T04:07:42;6.50;99.90
25024;DHT22;13033;50.936;5.334;2023-12-20T04:10:08;6.60;99.90
25024;DHT22;13033;50.936;5.334;2023-12-20T04:12:34;6.60;99.90
25024;DHT22;13033;50.936;5.334;2023-12-20T04:14:59;6.60;99.90
25024;DHT22;13033;50.936;5.334;2023-12-20T04:17:25;6.70;99.90
25024;DHT22;13033;50.936;5.334;2023-12-20T04:19:51;6.70;99.90
25024;DHT22;13033;50.936;5.334;2023-12-20T04:22:17;6.80;99.90
25024;DHT22;13033;50.936;5.334;2023-12-20T04:24:44;6.80;99.90
25024;DHT22;13033;50.936;5.334;2023-12-20T04:27:10;6.80;99.90
25024;DHT22;13033;50.936;5.334;2023-12-20T04:29:37;6.80;99.90
25024;DHT22;13033;50.936;5.334;2023-12-20T04:32:03;6.80;99.90
25024;DHT22;13033;50.936;5.334;2023-12-20T04:34:29;6.70;99.90
25024;DHT22;13033;50.936;5.334;2023-12-20T04:36:56;6.80;99.90
25024;DHT22;13033;50.936;5.334;2023-12-20T04:39:22;6.90;99.90
25024;DHT22;13033;50.936;5.334;2023-12-20T04:41:50;6.80;99.90
25024;DHT22;13033;50.936;5.334;2023-12-20T04:44:16;6.80;99.90
25024;DHT22;13033;50.936;5.334;2023-12-20T04:46:42;6.80;99.90
25024;DHT22;13033;50.936;5.334;2023-12-20T04:49:07;6.80;99.90
25024;DHT22;13033;50.936;5.334;2023-12-20T04:51:34;6.90;99.90
25024;DHT22;13033;50.936;5.334;2023-12-20T04:54:00;6.80;99.90
25024;DHT22;13033;50.936;5.334;2023-12-20T04:56:25;6.80;99.90
25024;DHT22;13033;50.936;5.334;2023-12-20T04:58:51;6.90;99.90
25024;DHT22;13033;50.936;5.334;2023-12-20T05:01:17;6.90;99.90
25024;DHT22;13033;50.936;5.334;2023-12-20T05:03:43;6.90;99.90
25024;DHT22;13033;50.936;5.334;2023-12-20T05:06:10;6.90;99.90
25024;DHT22;13033;50.936;5.334;2023-12-20T05:08:35;7.00;99.90
25024;DHT22;13033;50.936;5.334;2023-12-20T05:11:02;7.10;99.90
25024;DHT22;13033;50.936;5.334;2023-12-20T05:13:28;7.00;99.90
25024;DHT22;13033;50.936;5.334;2023-12-20T05:15:54;7.00;99.90
25024;DHT22;13033;50.936;5.334;2023-12-20T05:18:21;7.00;99.90
25024;DHT22;13033;50.936;5.334;2023-12-20T05:20:47;7.00;99.90
25024;DHT22;13033;50.936;5.334;2023-12-20T05:23:13;7.00;99.90
25024;DHT22;13033;50.936;5.334;2023-12-20T05:25:39;7.00;99.90
25024;DHT22;13033;50.936;5.334;2023-12-20T05:28:05;7.10;99.90
25024;DHT22;13033;50.936;5.334;2023-12-20T05:30:31;7.00;99.90
25024;DHT22;13033;50.936;5.334;2023-12-20T05:32:58;6.90;99.90
25024;DHT22;13033;50.936;5.334;2023-12-20T05:35:23;6.90;99.90
25024;DHT22;13033;50.936;5.334;2023-12-20T05:37:50;6.80;99.90
25024;DHT22;13033;50.936;5.334;2023-12-20T05:40:16;6.60;99.90
25024;DHT22;13033;50.936;5.334;2023-12-20T05:42:47;6.60;99.90
25024;DHT22;13033;50.936;5.334;2023-12-20T05:45:15;6.50;99.90
25024;DHT22;13033;50.936;5.334;2023-12-20T05:47:40;6.40;99.90
25024;DHT22;13033;50.936;5.334;2023-12-20T05:50:06;6.50;99.90
25024;DHT22;13033;50.936;5.334;2023-12-20T05:52:32;6.50;99.90
25024;DHT22;13033;50.936;5.334;2023-12-20T05:54:58;6.50;99.90
25024;DHT22;13033;50.936;5.334;2023-12-20T05:57:26;6.40;99.90
25024;DHT22;13033;50.936;5.334;2023-12-20T05:59:52;6.40;99.90
25024;DHT22;13033;50.936;5.334;2023-12-20T06:02:18;6.30;99.90
25024;DHT22;13033;50.936;5.334;2023-12-20T06:04:44;6.20;99.90
25024;DHT22;13033;50.936;5.334;2023-12-20T06:07:14;6.20;99.90
25024;DHT22;13033;50.936;5.334;2023-12-20T06:09:40;6.20;99.90
25024;DHT22;13033;50.936;5.334;2023-12-20T06:12:07;6.20;99.90
25024;DHT22;13033;50.936;5.334;2023-12-20T06:14:36;6.20;99.90
25024;DHT22;13033;50.936;5.334;2023-12-20T06:17:02;6.10;99.90
25024;DHT22;13033;50.936;5.334;2023-12-20T06:19:28;6.10;99.90
25024;DHT22;13033;50.936;5.334;2023-12-20T06:21:54;6.10;99.90
25024;DHT22;13033;50.936;5.334;2023-12-20T06:24:19;6.10;99.90
25024;DHT22;13033;50.936;5.334;2023-12-20T06:26:46;6.10;99.90
25024;DHT22;13033;50.936;5.334;2023-12-20T06:29:12;6.10;99.90
25024;DHT22;13033;50.936;5.334;2023-12-20T06:31:38;6.20;99.90
25024;DHT22;13033;50.936;5.334;2023-12-20T06:34:05;6.30;99.90
25024;DHT22;13033;50.936;5.334;2023-12-20T06:36:31;6.40;99.90
25024;DHT22;13033;50.936;5.334;2023-12-20T06:38:56;6.40;99.90
25024;DHT22;13033;50.936;5.334;2023-12-20T06:41:22;6.50;99.90
25024;DHT22;13033;50.936;5.334;2023-12-20T06:43:50;6.50;99.90
25024;DHT22;13033;50.936;5.334;2023-12-20T06:46:15;6.50;99.90
25024;DHT22;13033;50.936;5.334;2023-12-20T06:48:42;6.50;99.90
25024;DHT22;13033;50.936;5.334;2023-12-20T06:51:14;6.50;99.90
25024;DHT22;13033;50.936;5.334;2023-12-20T06:53:40;6.50;99.90
25024;DHT22;13033;50.936;5.334;2023-12-20T06:56:06;6.60;99.90
25024;DHT22;13033;50.936;5.334;2023-12-20T06:58:33;6.60;99.90
25024;DHT22;13033;50.936;5.334;2023-12-20T07:00:58;6.60;99.90
25024;DHT22;13033;50.936;5.334;2023-12-20T07:03:24;6.60;99.90
25024;DHT22;13033;50.936;5.334;2023-12-20T07:05:50;6.40;99.90
25024;DHT22;13033;50.936;5.334;2023-12-20T07:08:16;6.40;99.90
25024;DHT22;13033;50.936;5.334;2023-12-20T07:10:42;6.50;99.90
25024;DHT22;13033;50.936;5.334;2023-12-20T07:13:08;6.50;99.90
25024;DHT22;13033;50.936;5.334;2023-12-20T07:15:34;6.40;99.90
25024;DHT22;13033;50.936;5.334;2023-12-20T07:18:01;6.30;99.90
25024;DHT22;13033;50.936;5.334;2023-12-20T07:20:27;6.40;99.90
25024;DHT22;13033;50.936;5.334;2023-12-20T07:22:52;6.40;99.90
25024;DHT22;13033;50.936;5.334;2023-12-20T07:25:18;6.30;99.90
25024;DHT22;13033;50.936;5.334;2023-12-20T07:27:45;6.40;99.90
25024;DHT22;13033;50.936;5.334;2023-12-20T07:30:11;6.40;99.90
25024;DHT22;13033;50.936;5.334;2023-12-20T07:32:37;6.30;99.90
25024;DHT22;13033;50.936;5.334;2023-12-20T07:35:03;6.30;99.90
25024;DHT22;13033;50.936;5.334;2023-12-20T07:37:30;6.40;99.90
25024;DHT22;13033;50.936;5.334;2023-12-20T07:39:55;6.20;99.90
25024;DHT22;13033;50.936;5.334;2023-12-20T07:42:21;6.30;99.90
25024;DHT22;13033;50.936;5.334;2023-12-20T07:44:49;6.40;99.90
25024;DHT22;13033;50.936;5.334;2023-12-20T07:47:21;6.50;99.90
25024;DHT22;13033;50.936;5.334;2023-12-20T07:49:48;6.40;99.90
25024;DHT22;13033;50.936;5.334;2023-12-20T07:52:14;6.30;99.90
25024;DHT22;13033;50.936;5.334;2023-12-20T07:54:40;6.20;99.90
25024;DHT22;13033;50.936;5.334;2023-12-20T07:57:05;6.20;99.90
25024;DHT22;13033;50.936;5.334;2023-12-20T07:59:32;6.20;99.90
25024;DHT22;13033;50.936;5.334;2023-12-20T08:01:58;6.20;99.90
25024;DHT22;13033;50.936;5.334;2023-12-20T08:04:24;6.20;99.90
25024;DHT22;13033;50.936;5.334;2023-12-20T08:06:50;6.10;99.90
25024;DHT22;13033;50.936;5.334;2023-12-20T08:09:17;6.10;99.90
25024;DHT22;13033;50.936;5.334;2023-12-20T08:11:47;6.10;99.90
25024;DHT22;13033;50.936;5.334;2023-12-20T08:14:13;6.10;99.90
25024;DHT22;13033;50.936;5.334;2023-12-20T08:16:38;6.10;99.90
25024;DHT22;13033;50.936;5.334;2023-12-20T08:19:05;6.10;99.90
25024;DHT22;13033;50.936;5.334;2023-12-20T08:21:31;6.10;99.90
25024;DHT22;13033;50.936;5.334;2023-12-20T08:23:57;6.10;99.90
25024;DHT22;13033;50.936;5.334;2023-12-20T08:26:22;6.10;99.90
25024;DHT22;13033;50.936;5.334;2023-12-20T08:28:50;6.10;99.90
25024;DHT22;13033;50.936;5.334;2023-12-20T08:31:16;6.20;99.90
25024;DHT22;13033;50.936;5.334;2023-12-20T08:33:48;6.40;99.90
25024;DHT22;13033;50.936;5.334;2023-12-20T08:36:14;6.40;99.90
25024;DHT22;13033;50.936;5.334;2023-12-20T08:38:40;6.40;99.90
25024;DHT22;13033;50.936;5.334;2023-12-20T08:41:07;6.40;99.90
25024;DHT22;13033;50.936;5.334;2023-12-20T08:43:34;6.40;99.90
25024;DHT22;13033;50.936;5.334;2023-12-20T08:45:59;6.50;99.90
25024;DHT22;13033;50.936;5.334;2023-12-20T08:48:25;6.60;99.90
25024;DHT22;13033;50.936;5.334;2023-12-20T08:50:53;6.70;99.90
25024;DHT22;13033;50.936;5.334;2023-12-20T08:53:21;6.70;99.90
25024;DHT22;13033;50.936;5.334;2023-12-20T08:55:47;6.60;99.90
25024;DHT22;13033;50.936;5.334;2023-12-20T08:58:14;6.60;99.90
25024;DHT22;13033;50.936;5.334;2023-12-20T09:00:39;6.70;99.90
25024;DHT22;13033;50.936;5.334;2023-12-20T09:03:05;6.80;99.90
25024;DHT22;13033;50.936;5.334;2023-12-20T09:05:31;6.80;99.90
25024;DHT22;13033;50.936;5.334;2023-12-20T09:07:59;6.80;99.90
25024;DHT22;13033;50.936;5.334;2023-12-20T09:10:24;6.80;99.90
25024;DHT22;13033;50.936;5.334;2023-12-20T09:12:54;6.90;99.90
25024;DHT22;13033;50.936;5.334;2023-12-20T09:15:25;6.70;99.90
25024;DHT22;13033;50.936;5.334;2023-12-20T09:17:51;6.70;99.90
25024;DHT22;13033;50.936;5.334;2023-12-20T09:20:17;6.60;99.90
25024;DHT22;13033;50.936;5.334;2023-12-20T09:22:44;6.70;99.90
25024;DHT22;13033;50.936;5.334;2023-12-20T09:25:10;6.60;99.90
25024;DHT22;13033;50.936;5.334;2023-12-20T09:27:40;6.60;99.90
25024;DHT22;13033;50.936;5.334;2023-12-20T09:30:06;6.70;99.90
25024;DHT22;13033;50.936;5.334;2023-12-20T09:32:33;6.80;99.90
25024;DHT22;13033;50.936;5.334;2023-12-20T09:34:59;6.80;99.90
25024;DHT22;13033;50.936;5.334;2023-12-20T09:37:26;6.80;99.90
25024;DHT22;13033;50.936;5.334;2023-12-20T09:39:53;6.80;99.90
25024;DHT22;13033;50.936;5.334;2023-12-20T09:43:10;6.80;99.90
25024;DHT22;13033;50.936;5.334;2023-12-20T09:45:11;6.80;99.90
25024;DHT22;13033;50.936;5.334;2023-12-20T09:47:45;6.80;99.90
25024;DHT22;13033;50.936;5.334;2023-12-20T09:50:12;6.90;99.90
25024;DHT22;13033;50.936;5.334;2023-12-20T09:52:40;6.90;99.90
25024;DHT22;13033;50.936;5.334;2023-12-20T09:55:08;7.00;99.90
25024;DHT22;13033;50.936;5.334;2023-12-20T09:57:36;7.10;99.90
25024;DHT22;13033;50.936;5.334;2023-12-20T10:00:03;7.10;99.90
25024;DHT22;13033;50.936;5.334;2023-12-20T10:02:31;7.10;99.90
25024;DHT22;13033;50.936;5.334;2023-12-20T10:04:57;7.30;99.90
25024;DHT22;13033;50.936;5.334;2023-12-20T10:07:24;7.30;99.90
25024;DHT22;13033;50.936;5.334;2023-12-20T10:09:51;7.50;99.90
25024;DHT22;13033;50.936;5.334;2023-12-20T10:12:26;7.60;99.90
25024;DHT22;13033;50.936;5.334;2023-12-20T10:14:52;7.80;99.90
25024;DHT22;13033;50.936;5.334;2023-12-20T10:17:18;7.80;99.90
25024;DHT22;13033;50.936;5.334;2023-12-20T10:19:43;7.90;99.90
25024;DHT22;13033;50.936;5.334;2023-12-20T10:22:10;7.90;99.90
25024;DHT22;13033;50.936;5.334;2023-12-20T10:24:36;7.90;99.90
25024;DHT22;13033;50.936;5.334;2023-12-20T10:27:07;7.80;99.90
25024;DHT22;13033;50.936;5.334;2023-12-20T10:29:37;7.70;99.90
25024;DHT22;13033;50.936;5.334;2023-12-20T10:32:23;7.80;99.90
25024;DHT22;13033;50.936;5.334;2023-12-20T10:34:52;7.80;99.90
25024;DHT22;13033;50.936;5.334;2023-12-20T10:37:19;7.70;99.90
25024;DHT22;13033;50.936;5.334;2023-12-20T10:39:50;7.80;99.90
25024;DHT22;13033;50.936;5.334;2023-12-20T10:42:20;7.80;99.90
25024;DHT22;13033;50.936;5.334;2023-12-20T10:44:47;7.80;99.90
25024;DHT22;13033;50.936;5.334;2023-12-20T10:47:13;7.80;99.90
25024;DHT22;13033;50.936;5.334;2023-12-20T10:49:39;7.90;99.90
25024;DHT22;13033;50.936;5.334;2023-12-20T10:52:06;7.90;99.90
25024;DHT22;13033;50.936;5.334;2023-12-20T10:54:32;7.90;99.90
25024;DHT22;13033;50.936;5.334;2023-12-20T10:56:58;7.90;99.90
25024;DHT22;13033;50.936;5.334;2023-12-20T10:59:28;8.00;99.90
25024;DHT22;13033;50.936;5.334;2023-12-20T11:01:56;8.00;99.90
25024;DHT22;13033;50.936;5.334;2023-12-20T11:04:37;8.10;99.90
25024;DHT22;13033;50.936;5.334;2023-12-20T11:09:45;8.10;99.90
25024;DHT22;13033;50.936;5.334;2023-12-20T11:15:17;8.20;99.90
25024;DHT22;13033;50.936;5.334;2023-12-20T11:17:47;8.20;99.90
25024;DHT22;13033;50.936;5.334;2023-12-20T11:20:43;8.20;99.90
25024;DHT22;13033;50.936;5.334;2023-12-20T11:23:09;8.30;99.90
25024;DHT22;13033;50.936;5.334;2023-12-20T11:25:52;8.40;99.90
25024;DHT22;13033;50.936;5.334;2023-12-20T11:28:22;8.30;99.90
25024;DHT22;13033;50.936;5.334;2023-12-20T11:30:51;8.40;99.90
25024;DHT22;13033;50.936;5.334;2023-12-20T11:33:26;8.40;99.90
25024;DHT22;13033;50.936;5.334;2023-12-20T11:35:56;8.40;99.90
25024;DHT22;13033;50.936;5.334;2023-12-20T11:38:23;8.40;99.90
25024;DHT22;13033;50.936;5.334;2023-12-20T11:40:51;8.30;99.90
25024;DHT22;13033;50.936;5.334;2023-12-20T11:43:39;8.30;99.90
25024;DHT22;13033;50.936;5.334;2023-12-20T11:46:10;8.30;99.90
25024;DHT22;13033;50.936;5.334;2023-12-20T11:48:38;8.40;99.90
25024;DHT22;13033;50.936;5.334;2023-12-20T11:51:11;8.40;99.90
25024;DHT22;13033;50.936;5.334;2023-12-20T11:53:44;8.40;99.90
25024;DHT22;13033;50.936;5.334;2023-12-20T11:56:10;8.40;99.90
25024;DHT22;13033;50.936;5.334;2023-12-20T11:58:36;8.40;99.90
25024;DHT22;13033;50.936;5.334;2023-12-20T12:01:02;8.40;99.90
25024;DHT22;13033;50.936;5.334;2023-12-20T12:03:29;8.40;99.90
25024;DHT22;13033;50.936;5.334;2023-12-20T12:05:55;8.30;99.90
25024;DHT22;13033;50.936;5.334;2023-12-20T12:08:21;8.10;99.90
25024;DHT22;13033;50.936;5.334;2023-12-20T12:10:47;8.10;99.90
25024;DHT22;13033;50.936;5.334;2023-12-20T12:13:13;8.00;99.90
25024;DHT22;13033;50.936;5.334;2023-12-20T12:15:39;8.10;99.90
25024;DHT22;13033;50.936;5.334;2023-12-20T12:18:07;8.00;99.90
25024;DHT22;13033;50.936;5.334;2023-12-20T12:20:34;8.00;99.90
25024;DHT22;13033;50.936;5.334;2023-12-20T12:23:01;8.00;99.90
25024;DHT22;13033;50.936;5.334;2023-12-20T12:25:28;8.00;99.90
25024;DHT22;13033;50.936;5.334;2023-12-20T12:27:54;8.00;99.90
25024;DHT22;13033;50.936;5.334;2023-12-20T12:30:19;8.10;99.90
25024;DHT22;13033;50.936;5.334;2023-12-20T12:32:47;8.10;99.90
25024;DHT22;13033;50.936;5.334;2023-12-20T12:35:14;8.00;99.90
25024;DHT22;13033;50.936;5.334;2023-12-20T12:37:41;8.00;99.90
25024;DHT22;13033;50.936;5.334;2023-12-20T12:40:10;8.10;99.90
25024;DHT22;13033;50.936;5.334;2023-12-20T12:42:37;8.20;99.90
25024;DHT22;13033;50.936;5.334;2023-12-20T12:45:03;8.20;99.90
25024;DHT22;13033;50.936;5.334;2023-12-20T12:47:28;8.10;99.90
25024;DHT22;13033;50.936;5.334;2023-12-20T12:49:55;8.20;99.90
25024;DHT22;13033;50.936;5.334;2023-12-20T12:52:21;8.20;99.90
25024;DHT22;13033;50.936;5.334;2023-12-20T12:54:48;8.30;99.90
25024;DHT22;13033;50.936;5.334;2023-12-20T12:57:15;8.30;99.90
25024;DHT22;13033;50.936;5.334;2023-12-20T12:59:42;8.40;99.90
25024;DHT22;13033;50.936;5.334;2023-12-20T13:02:09;8.20;99.90
25024;DHT22;13033;50.936;5.334;2023-12-20T13:04:35;8.20;99.90
25024;DHT22;13033;50.936;5.334;2023-12-20T13:07:01;8.20;99.90
25024;DHT22;13033;50.936;5.334;2023-12-20T13:09:26;8.20;99.90
25024;DHT22;13033;50.936;5.334;2023-12-20T13:11:52;8.30;99.90
25024;DHT22;13033;50.936;5.334;2023-12-20T13:14:19;8.30;99.90
25024;DHT22;13033;50.936;5.334;2023-12-20T13:16:45;8.20;99.90
25024;DHT22;13033;50.936;5.334;2023-12-20T13:19:11;8.20;99.90
25024;DHT22;13033;50.936;5.334;2023-12-20T13:21:38;8.20;99.90
25024;DHT22;13033;50.936;5.334;2023-12-20T13:24:04;8.20;99.90
25024;DHT22;13033;50.936;5.334;2023-12-20T13:26:30;8.20;99.90
25024;DHT22;13033;50.936;5.334;2023-12-20T13:28:55;8.20;99.90
25024;DHT22;13033;50.936;5.334;2023-12-20T13:31:21;8.20;99.90
25024;DHT22;13033;50.936;5.334;2023-12-20T13:33:47;8.30;99.90
25024;DHT22;13033;50.936;5.334;2023-12-20T13:36:13;8.30;99.90
25024;DHT22;13033;50.936;5.334;2023-12-20T13:38:39;8.30;99.90
25024;DHT22;13033;50.936;5.334;2023-12-20T13:41:04;8.30;99.90
25024;DHT22;13033;50.936;5.334;2023-12-20T13:43:31;8.30;99.90
25024;DHT22;13033;50.936;5.334;2023-12-20T13:46:01;8.20;99.90
25024;DHT22;13033;50.936;5.334;2023-12-20T13:48:26;8.30;99.90
25024;DHT22;13033;50.936;5.334;2023-12-20T13:50:52;8.30;99.90
25024;DHT22;13033;50.936;5.334;2023-12-20T13:53:18;8.30;99.90
25024;DHT22;13033;50.936;5.334;2023-12-20T13:55:44;8.30;99.90
25024;DHT22;13033;50.936;5.334;2023-12-20T13:58:10;8.30;99.90
25024;DHT22;13033;50.936;5.334;2023-12-20T14:00:36;8.30;99.90
25024;DHT22;13033;50.936;5.334;2023-12-20T14:03:03;8.30;99.90
25024;DHT22;13033;50.936;5.334;2023-12-20T14:05:29;8.30;99.90
25024;DHT22;13033;50.936;5.334;2023-12-20T14:07:56;8.30;99.90
25024;DHT22;13033;50.936;5.334;2023-12-20T14:10:26;8.30;99.90
25024;DHT22;13033;50.936;5.334;2023-12-20T14:12:53;8.40;99.90
25024;DHT22;13033;50.936;5.334;2023-12-20T14:15:19;8.40;99.90
25024;DHT22;13033;50.936;5.334;2023-12-20T14:17:45;8.50;99.90
25024;DHT22;13033;50.936;5.334;2023-12-20T14:20:11;8.60;99.90
25024;DHT22;13033;50.936;5.334;2023-12-20T14:22:40;8.50;99.90
25024;DHT22;13033;50.936;5.334;2023-12-20T14:25:11;8.50;99.90
25024;DHT22;13033;50.936;5.334;2023-12-20T14:27:38;8.50;99.90
25024;DHT22;13033;50.936;5.334;2023-12-20T14:30:04;8.60;99.90
25024;DHT22;13033;50.936;5.334;2023-12-20T14:32:31;8.60;99.90
25024;DHT22;13033;50.936;5.334;2023-12-20T14:34:57;8.60;99.90
25024;DHT22;13033;50.936;5.334;2023-12-20T14:37:23;8.50;99.90
25024;DHT22;13033;50.936;5.334;2023-12-20T14:39:49;8.50;99.90
25024;DHT22;13033;50.936;5.334;2023-12-20T14:42:15;8.50;99.90
25024;DHT22;13033;50.936;5.334;2023-12-20T14:44:42;8.60;99.90
25024;DHT22;13033;50.936;5.334;2023-12-20T14:47:08;8.70;99.90
25024;DHT22;13033;50.936;5.334;2023-12-20T14:49:34;8.70;99.90
25024;DHT22;13033;50.936;5.334;2023-12-20T14:52:01;8.70;99.90
25024;DHT22;13033;50.936;5.334;2023-12-20T14:54:28;8.70;99.90
25024;DHT22;13033;50.936;5.334;2023-12-20T14:56:53;8.70;99.90
25024;DHT22;13033;50.936;5.334;2023-12-20T14:59:19;8.70;99.90
25024;DHT22;13033;50.936;5.334;2023-12-20T15:01:45;8.70;99.90
25024;DHT22;13033;50.936;5.334;2023-12-20T15:04:10;8.60;99.90
25024;DHT22;13033;50.936;5.334;2023-12-20T15:06:37;8.60;99.90
25024;DHT22;13033;50.936;5.334;2023-12-20T15:09:03;8.60;99.90
25024;DHT22;13033;50.936;5.334;2023-12-20T15:11:31;8.70;99.90
25024;DHT22;13033;50.936;5.334;2023-12-20T15:13:57;8.70;99.90
25024;DHT22;13033;50.936;5.334;2023-12-20T15:16:28;8.80;99.90
25024;DHT22;13033;50.936;5.334;2023-12-20T15:18:54;8.80;99.90
25024;DHT22;13033;50.936;5.334;2023-12-20T15:21:19;8.80;99.90
25024;DHT22;13033;50.936;5.334;2023-12-20T15:23:47;8.70;99.90
25024;DHT22;13033;50.936;5.334;2023-12-20T15:26:20;8.70;99.90
25024;DHT22;13033;50.936;5.334;2023-12-20T15:28:45;8.80;99.90
25024;DHT22;13033;50.936;5.334;2023-12-20T15:31:11;8.80;99.90
25024;DHT22;13033;50.936;5.334;2023-12-20T15:33:38;8.80;99.90
25024;DHT22;13033;50.936;5.334;2023-12-20T15:36:05;8.80;99.90
25024;DHT22;13033;50.936;5.334;2023-12-20T15:38:31;8.80;99.90
25024;DHT22;13033;50.936;5.334;2023-12-20T15:40:56;8.90;99.90
25024;DHT22;13033;50.936;5.334;2023-12-20T15:43:22;8.80;99.90
25024;DHT22;13033;50.936;5.334;2023-12-20T15:45:48;8.80;99.90
25024;DHT22;13033;50.936;5.334;2023-12-20T15:48:14;8.80;99.90